sensor_id;sensor_type;location;lat;lon;timestamp;pressure;altitude;pressure_sealevel;temperature;humidity
8059;BME280;4072;42.668;23.396;2023-05-24T00:00:46;94897.69;;;13.52;100.00
8059;BME280;4072;42.668;23.396;2023-05-24T00:03:15;94904.63;;;13.39;100.00
8059;BME280;4072;42.668;23.396;2023-05-24T00:05:44;94903.22;;;13.29;100.00
8059;BME280;4072;42.668;23.396;2023-05-24T00:08:12;94910.88;;;13.16;100.00
8059;BME280;4072;42.668;23.396;2023-05-24T00:10:41;94901.50;;;13.17;100.00
8059;BME280;4072;42.668;23.396;2023-05-24T00:13:10;94914.13;;;13.20;100.00
8059;BME280;4072;42.668;23.396;2023-05-24T00:15:38;94914.81;;;13.15;100.00
8059;BME280;4072;42.668;23.396;2023-05-24T00:18:05;94894.38;;;13.05;100.00
8059;BME280;4072;42.668;23.396;2023-05-24T00:20:35;94902.56;;;12.96;100.00
8059;BME280;4072;42.668;23.396;2023-05-24T00:23:03;94894.50;;;12.87;100.00
8059;BME280;4072;42.668;23.396;2023-05-24T00:25:31;94904.94;;;12.79;100.00
8059;BME280;4072;42.668;23.396;2023-05-24T00:27:59;94912.97;;;12.74;100.00
8059;BME280;4072;42.668;23.396;2023-05-24T00:30:27;94909.88;;;12.66;100.00
8059;BME280;4072;42.668;23.396;2023-05-24T00:32:55;94916.13;;;12.58;100.00
8059;BME280;4072;42.668;23.396;2023-05-24T00:35:23;94912.25;;;12.50;100.00
8059;BME280;4072;42.668;23.396;2023-05-24T00:37:53;94907.47;;;12.45;100.00
8059;BME280;4072;42.668;23.396;2023-05-24T00:40:20;94899.59;;;12.47;100.00
8059;BME280;4072;42.668;23.396;2023-05-24T00:42:48;94880.25;;;12.30;100.00
8059;BME280;4072;42.668;23.396;2023-05-24T00:45:16;94839.94;;;12.00;100.00
8059;BME280;4072;42.668;23.396;2023-05-24T00:47:45;94884.00;;;12.33;100.00
8059;BME280;4072;42.668;23.396;2023-05-24T00:50:13;94905.97;;;12.44;100.00
8059;BME280;4072;42.668;23.396;2023-05-24T00:52:42;94908.94;;;12.46;100.00
8059;BME280;4072;42.668;23.396;2023-05-24T00:55:13;94897.47;;;12.51;100.00
8059;BME280;4072;42.668;23.396;2023-05-24T00:57:42;94901.97;;;12.54;100.00
8059;BME280;4072;42.668;23.396;2023-05-24T01:00:11;94912.19;;;12.59;100.00
8059;BME280;4072;42.668;23.396;2023-05-24T01:02:39;94902.22;;;12.65;100.00
8059;BME280;4072;42.668;23.396;2023-05-24T01:05:08;94906.75;;;12.59;100.00
8059;BME280;4072;42.668;23.396;2023-05-24T01:07:49;94897.81;;;12.67;100.00
8059;BME280;4072;42.668;23.396;2023-05-24T01:10:30;94892.50;;;12.73;100.00
8059;BME280;4072;42.668;23.396;2023-05-24T01:13:04;94884.00;;;12.80;100.00
8059;BME280;4072;42.668;23.396;2023-05-24T01:15:41;94896.66;;;12.83;100.00
8059;BME280;4072;42.668;23.396;2023-05-24T01:18:16;94911.13;;;12.80;100.00
8059;BME280;4072;42.668;23.396;2023-05-24T01:20:51;94879.97;;;12.52;100.00
8059;BME280;4072;42.668;23.396;2023-05-24T01:23:33;94882.16;;;12.62;100.00
8059;BME280;4072;42.668;23.396;2023-05-24T01:26:25;94918.41;;;12.74;100.00
8059;BME280;4072;42.668;23.396;2023-05-24T01:28:59;94922.69;;;12.66;100.00
8059;BME280;4072;42.668;23.396;2023-05-24T01:31:27;94923.31;;;12.61;100.00
8059;BME280;4072;42.668;23.396;2023-05-24T01:33:55;94926.03;;;12.61;100.00
8059;BME280;4072;42.668;23.396;2023-05-24T01:36:24;94918.19;;;12.63;100.00
8059;BME280;4072;42.668;23.396;2023-05-24T01:38:52;94918.75;;;12.67;100.00
8059;BME280;4072;42.668;23.396;2023-05-24T01:41:27;94916.91;;;12.73;100.00
8059;BME280;4072;42.668;23.396;2023-05-24T01:44:07;94922.59;;;12.37;100.00
8059;BME280;4072;42.668;23.396;2023-05-24T01:46:38;94904.78;;;12.36;100.00
8059;BME280;4072;42.668;23.396;2023-05-24T01:49:12;94912.09;;;12.30;100.00
8059;BME280;4072;42.668;23.396;2023-05-24T01:51:48;94919.25;;;12.09;100.00
8059;BME280;4072;42.668;23.396;2023-05-24T01:54:19;94917.63;;;12.03;100.00
8059;BME280;4072;42.668;23.396;2023-05-24T01:56:51;94911.63;;;11.99;100.00
8059;BME280;4072;42.668;23.396;2023-05-24T01:59:23;94892.56;;;11.84;100.00
8059;BME280;4072;42.668;23.396;2023-05-24T02:01:52;94917.31;;;12.01;100.00
8059;BME280;4072;42.668;23.396;2023-05-24T02:04:21;94914.16;;;12.02;100.00
8059;BME280;4072;42.668;23.396;2023-05-24T02:06:49;94917.66;;;12.26;100.00
8059;BME280;4072;42.668;23.396;2023-05-24T02:09:17;94911.91;;;12.33;100.00
8059;BME280;4072;42.668;23.396;2023-05-24T02:11:45;94913.03;;;12.41;100.00
8059;BME280;4072;42.668;23.396;2023-05-24T02:14:13;94911.13;;;12.33;100.00
8059;BME280;4072;42.668;23.396;2023-05-24T02:16:44;94904.78;;;12.36;100.00
8059;BME280;4072;42.668;23.396;2023-05-24T02:19:13;94892.78;;;12.28;100.00
8059;BME280;4072;42.668;23.396;2023-05-24T02:21:43;94896.06;;;12.32;100.00
8059;BME280;4072;42.668;23.396;2023-05-24T02:24:11;94891.28;;;12.27;100.00
8059;BME280;4072;42.668;23.396;2023-05-24T02:26:39;94896.78;;;12.41;100.00
8059;BME280;4072;42.668;23.396;2023-05-24T02:29:07;94903.53;;;12.46;100.00
8059;BME280;4072;42.668;23.396;2023-05-24T02:31:35;94886.69;;;12.42;100.00
8059;BME280;4072;42.668;23.396;2023-05-24T02:34:05;94908.38;;;12.42;100.00
8059;BME280;4072;42.668;23.396;2023-05-24T02:36:35;94888.94;;;12.43;100.00
8059;BME280;4072;42.668;23.396;2023-05-24T02:39:03;94901.63;;;12.37;100.00
8059;BME280;4072;42.668;23.396;2023-05-24T02:41:31;94903.31;;;12.35;100.00
8059;BME280;4072;42.668;23.396;2023-05-24T02:43:59;94879.63;;;12.12;100.00
8059;BME280;4072;42.668;23.396;2023-05-24T02:46:27;94869.13;;;12.05;100.00
8059;BME280;4072;42.668;23.396;2023-05-24T02:48:55;94880.72;;;12.05;100.00
8059;BME280;4072;42.668;23.396;2023-05-24T02:51:24;94898.09;;;12.22;100.00
8059;BME280;4072;42.668;23.396;2023-05-24T02:53:52;94895.38;;;12.22;100.00
8059;BME280;4072;42.668;23.396;2023-05-24T02:56:20;94900.38;;;12.15;100.00
8059;BME280;4072;42.668;23.396;2023-05-24T02:58:48;94898.53;;;11.97;100.00
8059;BME280;4072;42.668;23.396;2023-05-24T03:01:16;94899.56;;;12.00;100.00
8059;BME280;4072;42.668;23.396;2023-05-24T03:03:45;94890.19;;;12.10;100.00
8059;BME280;4072;42.668;23.396;2023-05-24T03:06:13;94904.66;;;12.07;100.00
8059;BME280;4072;42.668;23.396;2023-05-24T03:08:43;94900.16;;;12.04;100.00
8059;BME280;4072;42.668;23.396;2023-05-24T03:11:11;94910.97;;;12.13;100.00
8059;BME280;4072;42.668;23.396;2023-05-24T03:13:39;94920.59;;;12.14;100.00
8059;BME280;4072;42.668;23.396;2023-05-24T03:16:08;94865.31;;;11.88;100.00
8059;BME280;4072;42.668;23.396;2023-05-24T03:18:36;94863.19;;;11.82;100.00
8059;BME280;4072;42.668;23.396;2023-05-24T03:21:04;94916.91;;;12.26;100.00
8059;BME280;4072;42.668;23.396;2023-05-24T03:23:33;94918.94;;;12.40;100.00
8059;BME280;4072;42.668;23.396;2023-05-24T03:26:02;94918.84;;;12.58;100.00
8059;BME280;4072;42.668;23.396;2023-05-24T03:28:30;94900.00;;;12.54;100.00
8059;BME280;4072;42.668;23.396;2023-05-24T03:30:59;94925.94;;;12.79;100.00
8059;BME280;4072;42.668;23.396;2023-05-24T03:33:27;94917.94;;;12.99;100.00
8059;BME280;4072;42.668;23.396;2023-05-24T03:35:55;94900.50;;;12.91;100.00
8059;BME280;4072;42.668;23.396;2023-05-24T03:38:23;94932.50;;;12.87;100.00
8059;BME280;4072;42.668;23.396;2023-05-24T03:40:51;94930.63;;;12.93;100.00
8059;BME280;4072;42.668;23.396;2023-05-24T03:43:20;94932.84;;;12.80;100.00
8059;BME280;4072;42.668;23.396;2023-05-24T03:45:49;94941.38;;;12.87;100.00
8059;BME280;4072;42.668;23.396;2023-05-24T03:48:17;94929.84;;;12.78;100.00
8059;BME280;4072;42.668;23.396;2023-05-24T03:50:46;94907.34;;;12.63;100.00
8059;BME280;4072;42.668;23.396;2023-05-24T03:53:14;94916.41;;;12.98;100.00
8059;BME280;4072;42.668;23.396;2023-05-24T03:55:42;94900.66;;;12.87;100.00
8059;BME280;4072;42.668;23.396;2023-05-24T03:58:11;94933.63;;;12.95;100.00
8059;BME280;4072;42.668;23.396;2023-05-24T04:00:40;94932.19;;;13.08;100.00
8059;BME280;4072;42.668;23.396;2023-05-24T04:03:09;94873.50;;;12.87;100.00
8059;BME280;4072;42.668;23.396;2023-05-24T04:05:37;94928.03;;;13.22;100.00
8059;BME280;4072;42.668;23.396;2023-05-24T04:08:05;94937.66;;;13.23;100.00
8059;BME280;4072;42.668;23.396;2023-05-24T04:10:34;94939.34;;;13.35;100.00
8059;BME280;4072;42.668;23.396;2023-05-24T04:13:01;94923.78;;;13.21;100.00
8059;BME280;4072;42.668;23.396;2023-05-24T04:15:29;94934.22;;;13.37;100.00
8059;BME280;4072;42.668;23.396;2023-05-24T04:17:59;94935.81;;;13.43;100.00
8059;BME280;4072;42.668;23.396;2023-05-24T04:20:29;94854.28;;;13.00;100.00
8059;BME280;4072;42.668;23.396;2023-05-24T04:22:57;94938.06;;;13.45;100.00
8059;BME280;4072;42.668;23.396;2023-05-24T04:25:25;94941.25;;;13.58;100.00
8059;BME280;4072;42.668;23.396;2023-05-24T04:27:53;94939.16;;;13.53;100.00
8059;BME280;4072;42.668;23.396;2023-05-24T04:30:21;94938.13;;;13.79;100.00
8059;BME280;4072;42.668;23.396;2023-05-24T04:32:49;94940.97;;;13.85;100.00
8059;BME280;4072;42.668;23.396;2023-05-24T04:35:20;94945.91;;;13.86;100.00
8059;BME280;4072;42.668;23.396;2023-05-24T04:37:48;94919.81;;;14.09;100.00
8059;BME280;4072;42.668;23.396;2023-05-24T04:40:16;94926.94;;;14.21;100.00
8059;BME280;4072;42.668;23.396;2023-05-24T04:42:46;94941.88;;;14.60;100.00
8059;BME280;4072;42.668;23.396;2023-05-24T04:45:14;94949.22;;;14.74;100.00
8059;BME280;4072;42.668;23.396;2023-05-24T04:47:42;94956.97;;;15.01;100.00
8059;BME280;4072;42.668;23.396;2023-05-24T04:50:10;94942.16;;;14.82;100.00
8059;BME280;4072;42.668;23.396;2023-05-24T04:52:40;94960.31;;;14.91;100.00
8059;BME280;4072;42.668;23.396;2023-05-24T04:55:08;94961.41;;;14.99;100.00
8059;BME280;4072;42.668;23.396;2023-05-24T04:57:37;94944.59;;;14.80;100.00
8059;BME280;4072;42.668;23.396;2023-05-24T05:00:06;94956.31;;;15.06;100.00
8059;BME280;4072;42.668;23.396;2023-05-24T05:02:35;94940.63;;;15.01;100.00
8059;BME280;4072;42.668;23.396;2023-05-24T05:05:04;94965.16;;;15.21;100.00
8059;BME280;4072;42.668;23.396;2023-05-24T05:07:32;94949.19;;;15.34;100.00
8059;BME280;4072;42.668;23.396;2023-05-24T05:10:01;94964.63;;;15.37;100.00
8059;BME280;4072;42.668;23.396;2023-05-24T05:12:29;94941.69;;;15.29;100.00
8059;BME280;4072;42.668;23.396;2023-05-24T05:14:57;94966.44;;;15.26;100.00
8059;BME280;4072;42.668;23.396;2023-05-24T05:17:25;94964.41;;;15.41;100.00
8059;BME280;4072;42.668;23.396;2023-05-24T05:19:53;94968.38;;;15.65;100.00
8059;BME280;4072;42.668;23.396;2023-05-24T05:22:21;94969.25;;;15.82;100.00
8059;BME280;4072;42.668;23.396;2023-05-24T05:24:50;94980.22;;;16.13;100.00
8059;BME280;4072;42.668;23.396;2023-05-24T05:27:19;94952.56;;;16.31;100.00
8059;BME280;4072;42.668;23.396;2023-05-24T05:29:47;94934.81;;;16.16;100.00
8059;BME280;4072;42.668;23.396;2023-05-24T05:32:15;94974.69;;;16.39;100.00
8059;BME280;4072;42.668;23.396;2023-05-24T05:34:43;94971.88;;;16.59;100.00
8059;BME280;4072;42.668;23.396;2023-05-24T05:37:12;94975.38;;;17.12;100.00
8059;BME280;4072;42.668;23.396;2023-05-24T05:39:40;94952.09;;;17.33;100.00
8059;BME280;4072;42.668;23.396;2023-05-24T05:42:08;94946.50;;;17.81;100.00
8059;BME280;4072;42.668;23.396;2023-05-24T05:44:37;94956.25;;;18.21;100.00
8059;BME280;4072;42.668;23.396;2023-05-24T05:47:05;94922.13;;;18.33;100.00
8059;BME280;4072;42.668;23.396;2023-05-24T05:49:34;94969.84;;;18.87;100.00
8059;BME280;4072;42.668;23.396;2023-05-24T05:52:03;94980.47;;;19.18;98.88
8059;BME280;4072;42.668;23.396;2023-05-24T05:54:31;94957.63;;;18.99;99.62
8059;BME280;4072;42.668;23.396;2023-05-24T05:56:59;94974.00;;;19.21;99.30
8059;BME280;4072;42.668;23.396;2023-05-24T05:59:27;94968.88;;;19.58;96.88
8059;BME280;4072;42.668;23.396;2023-05-24T06:01:57;94971.09;;;19.59;94.76
8059;BME280;4072;42.668;23.396;2023-05-24T06:04:25;94972.72;;;19.79;92.46
8059;BME280;4072;42.668;23.396;2023-05-24T06:06:53;94970.72;;;20.20;85.90
8059;BME280;4072;42.668;23.396;2023-05-24T06:09:21;94974.16;;;19.91;88.28
8059;BME280;4072;42.668;23.396;2023-05-24T06:11:49;94989.50;;;19.70;90.25
8059;BME280;4072;42.668;23.396;2023-05-24T06:14:17;94955.69;;;19.51;88.88
8059;BME280;4072;42.668;23.396;2023-05-24T06:16:46;94993.56;;;19.58;88.85
8059;BME280;4072;42.668;23.396;2023-05-24T06:19:16;94988.81;;;19.58;90.80
8059;BME280;4072;42.668;23.396;2023-05-24T06:21:44;94978.75;;;19.72;91.93
8059;BME280;4072;42.668;23.396;2023-05-24T06:24:14;94974.78;;;19.73;93.28
8059;BME280;4072;42.668;23.396;2023-05-24T06:26:46;94944.09;;;20.09;86.99
8059;BME280;4072;42.668;23.396;2023-05-24T06:29:14;94974.50;;;20.47;86.40
8059;BME280;4072;42.668;23.396;2023-05-24T06:31:42;94980.19;;;20.84;85.43
8059;BME280;4072;42.668;23.396;2023-05-24T06:34:10;94966.94;;;20.82;81.12
8059;BME280;4072;42.668;23.396;2023-05-24T06:36:39;94987.53;;;20.70;85.38
8059;BME280;4072;42.668;23.396;2023-05-24T06:39:08;94977.56;;;20.67;87.42
8059;BME280;4072;42.668;23.396;2023-05-24T06:41:36;94977.66;;;20.56;86.20
8059;BME280;4072;42.668;23.396;2023-05-24T06:44:05;94987.53;;;20.70;85.20
8059;BME280;4072;42.668;23.396;2023-05-24T06:46:33;94973.91;;;20.83;83.76
8059;BME280;4072;42.668;23.396;2023-05-24T06:49:01;94974.81;;;20.91;84.18
8059;BME280;4072;42.668;23.396;2023-05-24T06:51:29;94977.59;;;21.15;83.75
8059;BME280;4072;42.668;23.396;2023-05-24T06:54:00;94971.78;;;21.00;83.52
8059;BME280;4072;42.668;23.396;2023-05-24T06:56:28;94978.63;;;21.12;83.91
8059;BME280;4072;42.668;23.396;2023-05-24T06:58:57;94981.03;;;21.21;80.86
8059;BME280;4072;42.668;23.396;2023-05-24T07:01:25;94966.25;;;21.24;81.90
8059;BME280;4072;42.668;23.396;2023-05-24T07:03:53;94922.16;;;21.30;77.98
8059;BME280;4072;42.668;23.396;2023-05-24T07:06:21;94967.63;;;21.55;79.04
8059;BME280;4072;42.668;23.396;2023-05-24T07:08:50;94941.81;;;21.76;77.34
8059;BME280;4072;42.668;23.396;2023-05-24T07:11:20;94931.38;;;21.69;73.55
8059;BME280;4072;42.668;23.396;2023-05-24T07:13:48;94955.19;;;21.48;74.61
8059;BME280;4072;42.668;23.396;2023-05-24T07:16:16;94967.22;;;21.45;75.78
8059;BME280;4072;42.668;23.396;2023-05-24T07:18:44;94973.31;;;21.38;76.27
8059;BME280;4072;42.668;23.396;2023-05-24T07:21:12;94975.69;;;21.29;78.30
8059;BME280;4072;42.668;23.396;2023-05-24T07:23:40;94979.09;;;21.16;81.14
8059;BME280;4072;42.668;23.396;2023-05-24T07:26:08;94982.72;;;21.67;78.16
8059;BME280;4072;42.668;23.396;2023-05-24T07:28:37;94984.75;;;22.35;76.08
8059;BME280;4072;42.668;23.396;2023-05-24T07:31:07;94986.44;;;23.14;68.26
8059;BME280;4072;42.668;23.396;2023-05-24T07:33:36;94945.34;;;22.98;67.22
8059;BME280;4072;42.668;23.396;2023-05-24T07:36:04;94982.47;;;22.97;67.58
8059;BME280;4072;42.668;23.396;2023-05-24T07:38:33;94985.38;;;23.43;63.60
8059;BME280;4072;42.668;23.396;2023-05-24T07:41:02;94955.78;;;23.31;65.57
8059;BME280;4072;42.668;23.396;2023-05-24T07:43:30;94988.44;;;23.66;66.30
8059;BME280;4072;42.668;23.396;2023-05-24T07:45:59;94968.53;;;23.93;59.57
8059;BME280;4072;42.668;23.396;2023-05-24T07:48:28;94975.38;;;24.33;57.41
8059;BME280;4072;42.668;23.396;2023-05-24T07:50:56;94972.06;;;24.35;56.87
8059;BME280;4072;42.668;23.396;2023-05-24T07:53:24;94956.91;;;24.28;58.44
8059;BME280;4072;42.668;23.396;2023-05-24T07:55:52;94973.44;;;24.62;57.41
8059;BME280;4072;42.668;23.396;2023-05-24T07:58:20;94976.66;;;24.94;54.46
8059;BME280;4072;42.668;23.396;2023-05-24T08:00:48;94984.97;;;24.94;52.51
8059;BME280;4072;42.668;23.396;2023-05-24T08:03:18;94978.44;;;24.84;53.03
8059;BME280;4072;42.668;23.396;2023-05-24T08:05:46;94969.44;;;24.29;55.63
8059;BME280;4072;42.668;23.396;2023-05-24T08:08:14;94968.38;;;24.53;56.05
8059;BME280;4072;42.668;23.396;2023-05-24T08:10:42;94956.38;;;24.50;56.46
8059;BME280;4072;42.668;23.396;2023-05-24T08:13:10;94908.09;;;24.31;55.61
8059;BME280;4072;42.668;23.396;2023-05-24T08:15:38;94968.22;;;24.58;54.60
8059;BME280;4072;42.668;23.396;2023-05-24T08:18:06;94954.69;;;24.27;55.39
8059;BME280;4072;42.668;23.396;2023-05-24T08:20:37;94980.22;;;24.20;52.14
8059;BME280;4072;42.668;23.396;2023-05-24T08:23:06;94974.28;;;24.16;54.76
8059;BME280;4072;42.668;23.396;2023-05-24T08:25:34;94972.22;;;24.29;55.13
8059;BME280;4072;42.668;23.396;2023-05-24T08:28:02;94969.13;;;24.33;51.55
8059;BME280;4072;42.668;23.396;2023-05-24T08:30:30;94954.63;;;24.40;48.96
8059;BME280;4072;42.668;23.396;2023-05-24T08:32:58;94970.94;;;24.71;48.56
8059;BME280;4072;42.668;23.396;2023-05-24T08:35:27;94957.84;;;24.51;43.58
8059;BME280;4072;42.668;23.396;2023-05-24T08:37:57;94970.91;;;24.64;43.14
8059;BME280;4072;42.668;23.396;2023-05-24T08:40:25;94975.25;;;24.59;44.09
8059;BME280;4072;42.668;23.396;2023-05-24T08:42:54;94972.38;;;24.65;44.41
8059;BME280;4072;42.668;23.396;2023-05-24T08:45:25;94978.31;;;24.69;42.75
8059;BME280;4072;42.668;23.396;2023-05-24T08:47:56;94975.81;;;24.78;41.75
8059;BME280;4072;42.668;23.396;2023-05-24T08:50:24;94969.94;;;24.82;39.79
8059;BME280;4072;42.668;23.396;2023-05-24T08:52:53;94970.63;;;24.75;40.64
8059;BME280;4072;42.668;23.396;2023-05-24T08:55:22;94960.97;;;24.68;39.90
8059;BME280;4072;42.668;23.396;2023-05-24T08:57:51;94967.31;;;24.76;41.41
8059;BME280;4072;42.668;23.396;2023-05-24T09:00:20;94943.94;;;24.85;39.47
8059;BME280;4072;42.668;23.396;2023-05-24T09:02:48;94975.06;;;25.06;38.46
8059;BME280;4072;42.668;23.396;2023-05-24T09:05:17;94966.88;;;24.93;38.87
8059;BME280;4072;42.668;23.396;2023-05-24T09:07:48;94964.91;;;25.01;39.17
8059;BME280;4072;42.668;23.396;2023-05-24T09:10:18;94970.34;;;25.14;39.24
8059;BME280;4072;42.668;23.396;2023-05-24T09:12:52;94960.38;;;25.39;39.19
8059;BME280;4072;42.668;23.396;2023-05-24T09:15:23;94964.56;;;25.04;39.25
8059;BME280;4072;42.668;23.396;2023-05-24T09:17:51;94961.91;;;24.50;40.34
8059;BME280;4072;42.668;23.396;2023-05-24T09:20:19;94922.69;;;24.80;40.28
8059;BME280;4072;42.668;23.396;2023-05-24T09:22:50;94958.16;;;25.45;38.79
8059;BME280;4072;42.668;23.396;2023-05-24T09:25:19;94941.53;;;25.37;39.47
8059;BME280;4072;42.668;23.396;2023-05-24T09:27:52;94960.38;;;25.82;39.28
8059;BME280;4072;42.668;23.396;2023-05-24T09:30:20;94963.25;;;25.69;36.94
8059;BME280;4072;42.668;23.396;2023-05-24T09:32:54;94967.38;;;25.40;35.95
8059;BME280;4072;42.668;23.396;2023-05-24T09:35:23;94968.53;;;25.52;35.17
8059;BME280;4072;42.668;23.396;2023-05-24T09:37:55;94953.44;;;25.61;36.61
8059;BME280;4072;42.668;23.396;2023-05-24T09:40:26;94908.88;;;25.43;36.75
8059;BME280;4072;42.668;23.396;2023-05-24T09:43:06;94934.09;;;25.68;36.44
8059;BME280;4072;42.668;23.396;2023-05-24T09:45:40;94962.22;;;25.44;38.61
8059;BME280;4072;42.668;23.396;2023-05-24T09:48:10;94935.38;;;25.67;37.34
8059;BME280;4072;42.668;23.396;2023-05-24T09:50:39;94958.25;;;25.60;37.24
8059;BME280;4072;42.668;23.396;2023-05-24T09:53:08;94949.69;;;25.43;38.19
8059;BME280;4072;42.668;23.396;2023-05-24T09:55:36;94939.19;;;25.21;38.50
8059;BME280;4072;42.668;23.396;2023-05-24T09:58:06;94943.84;;;24.98;38.22
8059;BME280;4072;42.668;23.396;2023-05-24T10:00:37;94951.34;;;25.18;39.78
8059;BME280;4072;42.668;23.396;2023-05-24T10:03:08;94947.41;;;25.34;37.93
8059;BME280;4072;42.668;23.396;2023-05-24T10:05:40;94941.88;;;25.34;36.97
8059;BME280;4072;42.668;23.396;2023-05-24T10:08:09;94881.84;;;25.29;36.57
8059;BME280;4072;42.668;23.396;2023-05-24T10:10:37;94941.63;;;26.03;36.59
8059;BME280;4072;42.668;23.396;2023-05-24T10:13:06;94948.50;;;26.17;35.69
8059;BME280;4072;42.668;23.396;2023-05-24T10:15:34;94939.78;;;25.63;35.27
8059;BME280;4072;42.668;23.396;2023-05-24T10:18:02;94940.47;;;25.48;36.16
8059;BME280;4072;42.668;23.396;2023-05-24T10:20:54;94942.53;;;25.27;35.46
8059;BME280;4072;42.668;23.396;2023-05-24T10:23:23;94937.63;;;25.05;35.61
8059;BME280;4072;42.668;23.396;2023-05-24T10:25:57;94909.25;;;24.84;34.85
8059;BME280;4072;42.668;23.396;2023-05-24T10:28:29;94937.09;;;25.34;35.28
8059;BME280;4072;42.668;23.396;2023-05-24T10:31:02;94914.00;;;25.83;34.03
8059;BME280;4072;42.668;23.396;2023-05-24T10:33:35;94926.72;;;26.44;34.86
8059;BME280;4072;42.668;23.396;2023-05-24T10:36:05;94905.19;;;26.07;34.56
8059;BME280;4072;42.668;23.396;2023-05-24T10:38:36;94909.66;;;26.02;34.34
8059;BME280;4072;42.668;23.396;2023-05-24T10:41:06;94879.25;;;25.74;33.79
8059;BME280;4072;42.668;23.396;2023-05-24T10:43:36;94929.50;;;25.78;34.81
8059;BME280;4072;42.668;23.396;2023-05-24T10:46:07;94912.88;;;25.78;33.71
8059;BME280;4072;42.668;23.396;2023-05-24T10:48:39;94910.19;;;26.08;33.87
8059;BME280;4072;42.668;23.396;2023-05-24T10:51:32;94907.63;;;26.40;33.25
8059;BME280;4072;42.668;23.396;2023-05-24T10:54:12;94900.59;;;26.17;32.88
8059;BME280;4072;42.668;23.396;2023-05-24T10:56:43;94905.22;;;26.14;32.84
8059;BME280;4072;42.668;23.396;2023-05-24T10:59:31;94881.56;;;26.13;34.66
8059;BME280;4072;42.668;23.396;2023-05-24T11:02:04;94901.19;;;26.45;33.70
8059;BME280;4072;42.668;23.396;2023-05-24T11:04:36;94879.75;;;26.76;32.86
8059;BME280;4072;42.668;23.396;2023-05-24T11:07:06;94891.31;;;27.19;32.39
8059;BME280;4072;42.668;23.396;2023-05-24T11:09:38;94884.84;;;27.02;32.51
8059;BME280;4072;42.668;23.396;2023-05-24T11:12:14;94902.25;;;27.25;31.86
8059;BME280;4072;42.668;23.396;2023-05-24T11:14:48;94884.84;;;27.17;31.54
8059;BME280;4072;42.668;23.396;2023-05-24T11:17:20;94900.94;;;27.33;31.82
8059;BME280;4072;42.668;23.396;2023-05-24T11:19:50;94892.91;;;27.45;31.75
8059;BME280;4072;42.668;23.396;2023-05-24T11:22:20;94893.22;;;27.56;32.37
8059;BME280;4072;42.668;23.396;2023-05-24T11:24:48;94879.47;;;27.11;32.17
8059;BME280;4072;42.668;23.396;2023-05-24T11:27:17;94892.00;;;27.42;31.83
8059;BME280;4072;42.668;23.396;2023-05-24T11:29:47;94882.19;;;27.41;31.40
8059;BME280;4072;42.668;23.396;2023-05-24T11:32:17;94884.72;;;27.54;31.44
8059;BME280;4072;42.668;23.396;2023-05-24T11:34:46;94887.09;;;27.65;31.26
8059;BME280;4072;42.668;23.396;2023-05-24T11:37:14;94881.88;;;27.69;31.62
8059;BME280;4072;42.668;23.396;2023-05-24T11:39:48;94869.38;;;27.46;32.20
8059;BME280;4072;42.668;23.396;2023-05-24T11:42:17;94881.47;;;27.33;33.14
8059;BME280;4072;42.668;23.396;2023-05-24T11:44:48;94876.38;;;26.92;31.19
8059;BME280;4072;42.668;23.396;2023-05-24T11:47:19;94851.25;;;26.38;33.16
8059;BME280;4072;42.668;23.396;2023-05-24T11:49:49;94882.50;;;26.23;33.05
8059;BME280;4072;42.668;23.396;2023-05-24T11:52:17;94881.13;;;25.94;32.86
8059;BME280;4072;42.668;23.396;2023-05-24T11:54:45;94869.66;;;25.90;33.51
8059;BME280;4072;42.668;23.396;2023-05-24T11:57:13;94867.50;;;26.11;33.44
8059;BME280;4072;42.668;23.396;2023-05-24T11:59:42;94861.63;;;26.37;33.94
8059;BME280;4072;42.668;23.396;2023-05-24T12:02:11;94837.34;;;26.75;32.16
8059;BME280;4072;42.668;23.396;2023-05-24T12:04:40;94853.28;;;26.60;32.82
8059;BME280;4072;42.668;23.396;2023-05-24T12:07:09;94851.53;;;27.02;32.68
8059;BME280;4072;42.668;23.396;2023-05-24T12:09:37;94851.09;;;27.35;31.36
8059;BME280;4072;42.668;23.396;2023-05-24T12:12:06;94846.00;;;27.56;31.42
8059;BME280;4072;42.668;23.396;2023-05-24T12:14:34;94799.75;;;27.44;31.33
8059;BME280;4072;42.668;23.396;2023-05-24T12:17:02;94848.53;;;28.01;29.85
8059;BME280;4072;42.668;23.396;2023-05-24T12:19:32;94829.94;;;27.79;30.99
8059;BME280;4072;42.668;23.396;2023-05-24T12:22:03;94842.69;;;27.50;31.99
8059;BME280;4072;42.668;23.396;2023-05-24T12:24:32;94839.94;;;27.50;32.53
8059;BME280;4072;42.668;23.396;2023-05-24T12:27:01;94830.38;;;27.29;32.65
8059;BME280;4072;42.668;23.396;2023-05-24T12:29:33;94773.19;;;26.56;32.70
8059;BME280;4072;42.668;23.396;2023-05-24T12:32:03;94828.31;;;26.67;32.35
8059;BME280;4072;42.668;23.396;2023-05-24T12:34:32;94805.72;;;26.56;32.06
8059;BME280;4072;42.668;23.396;2023-05-24T12:37:01;94820.53;;;26.58;32.71
8059;BME280;4072;42.668;23.396;2023-05-24T12:39:29;94824.97;;;26.39;33.16
8059;BME280;4072;42.668;23.396;2023-05-24T12:42:00;94822.41;;;26.03;33.63
8059;BME280;4072;42.668;23.396;2023-05-24T12:44:31;94829.09;;;26.30;34.18
8059;BME280;4072;42.668;23.396;2023-05-24T12:47:01;94819.06;;;26.65;33.70
8059;BME280;4072;42.668;23.396;2023-05-24T12:49:30;94803.84;;;26.88;32.85
8059;BME280;4072;42.668;23.396;2023-05-24T12:51:59;94823.16;;;26.64;32.83
8059;BME280;4072;42.668;23.396;2023-05-24T12:54:28;94814.25;;;26.65;32.92
8059;BME280;4072;42.668;23.396;2023-05-24T12:56:57;94814.25;;;26.80;32.50
8059;BME280;4072;42.668;23.396;2023-05-24T12:59:28;94814.69;;;27.09;31.67
8059;BME280;4072;42.668;23.396;2023-05-24T13:01:56;94795.59;;;27.28;32.48
8059;BME280;4072;42.668;23.396;2023-05-24T13:04:24;94818.38;;;27.11;31.81
8059;BME280;4072;42.668;23.396;2023-05-24T13:06:53;94812.75;;;26.79;31.92
8059;BME280;4072;42.668;23.396;2023-05-24T13:09:23;94809.75;;;26.92;32.88
8059;BME280;4072;42.668;23.396;2023-05-24T13:11:51;94804.13;;;27.22;31.65
8059;BME280;4072;42.668;23.396;2023-05-24T13:14:20;94773.72;;;27.32;31.43
8059;BME280;4072;42.668;23.396;2023-05-24T13:16:48;94807.16;;;27.73;32.26